createdAt,value
2022-08-12T00:02:02.906Z,35.10
2022-08-12T00:04:49.933Z,35.39
2022-08-12T00:07:36.216Z,35.26
2022-08-12T00:10:22.172Z,35.10
2022-08-12T00:13:07.520Z,35.08
2022-08-12T00:15:54.487Z,34.23
2022-08-12T00:18:40.002Z,34.87
2022-08-12T00:21:25.390Z,34.98
2022-08-12T00:24:12.871Z,35.10
2022-08-12T00:27:00.248Z,35.19
2022-08-12T00:29:48.147Z,35.02
2022-08-12T00:32:35.956Z,35.15
2022-08-12T00:35:27.401Z,35.31
2022-08-12T00:38:22.848Z,35.81
2022-08-12T00:41:08.356Z,35.98
2022-08-12T00:43:36.258Z,35.89
2022-08-12T00:46:22.463Z,36.48
2022-08-12T00:48:50.411Z,36.52
2022-08-12T00:51:17.324Z,36.71
2022-08-12T00:53:44.139Z,36.57
2022-08-12T00:56:10.950Z,36.91
2022-08-12T00:58:45.962Z,37.10
2022-08-12T01:01:16.561Z,37.38
2022-08-12T01:04:07.255Z,36.97
2022-08-12T01:06:53.787Z,37.39
2022-08-12T01:09:41.225Z,37.81
2022-08-12T01:12:11.743Z,37.44
2022-08-12T01:14:40.874Z,37.50
2022-08-12T01:17:08.079Z,37.70
2022-08-12T01:19:34.719Z,37.83
2022-08-12T01:22:23.528Z,37.94
2022-08-12T01:25:18.557Z,38.17
2022-08-12T01:27:46.786Z,38.46
2022-08-12T01:30:14.447Z,38.46
2022-08-12T01:32:42.149Z,38.58
2022-08-12T01:35:14.747Z,38.53
2022-08-12T01:38:01.116Z,38.54
2022-08-12T01:40:36.098Z,38.44
2022-08-12T01:43:10.454Z,38.63
2022-08-12T01:45:46.340Z,38.99
2022-08-12T01:48:29.647Z,38.95
2022-08-12T01:52:21.312Z,38.87
2022-08-12T01:54:22.747Z,39.16
2022-08-12T01:57:11.070Z,39.46
2022-08-12T01:59:59.259Z,39.34
2022-08-12T02:02:35.056Z,39.52
2022-08-12T02:05:30.562Z,39.72
2022-08-12T02:08:27.728Z,39.51
2022-08-12T02:11:22.703Z,39.92
2022-08-12T02:14:01.178Z,40.20
2022-08-12T02:16:36.400Z,39.71
2022-08-12T02:19:28.579Z,40.07
2022-08-12T02:22:00.297Z,39.99
2022-08-12T02:24:32.237Z,40.13
2022-08-12T02:27:00.595Z,40.03
2022-08-12T02:29:27.999Z,40.53
2022-08-12T02:31:55.298Z,40.20
2022-08-12T02:34:23.086Z,39.72
2022-08-12T02:36:54.589Z,39.61
2022-08-12T02:39:25.283Z,39.79
2022-08-12T02:41:54.311Z,39.49
2022-08-12T02:44:23.631Z,39.62
2022-08-12T02:46:55.110Z,39.78
2022-08-12T02:49:44.561Z,39.67
2022-08-12T02:52:14.464Z,39.99
2022-08-12T02:54:45.746Z,39.99
2022-08-12T02:57:14.124Z,40.08
2022-08-12T02:59:41.831Z,40.06
2022-08-12T03:02:13.114Z,40.04
2022-08-12T03:04:56.695Z,40.16
2022-08-12T03:07:55.804Z,40.22
2022-08-12T03:10:23.955Z,40.29
2022-08-12T03:13:07.471Z,40.31
2022-08-12T03:15:35.904Z,40.19
2022-08-12T03:18:24.542Z,40.39
2022-08-12T03:20:53.901Z,40.16
2022-08-12T03:23:29.815Z,40.34
2022-08-12T03:25:59.417Z,40.25
2022-08-12T03:28:44.756Z,40.44
2022-08-12T03:31:11.590Z,40.20
2022-08-12T03:33:40.740Z,40.24
2022-08-12T03:36:08.980Z,40.55
2022-08-12T03:38:40.473Z,40.69
2022-08-12T03:41:40.695Z,40.64
2022-08-12T03:44:56.444Z,40.95
2022-08-12T03:47:49.866Z,41.10
2022-08-12T03:50:36.786Z,41.17
2022-08-12T03:53:24.586Z,41.34
2022-08-12T03:56:10.684Z,41.63
2022-08-12T03:58:56.959Z,41.30
2022-08-12T04:01:26.241Z,41.18
2022-08-12T04:03:53.690Z,41.34
2022-08-12T04:06:35.048Z,41.36
2022-08-12T04:09:14.631Z,41.27
2022-08-12T04:12:01.260Z,41.36
2022-08-12T04:14:28.034Z,41.48
2022-08-12T04:16:57.088Z,41.21
2022-08-12T04:19:25.199Z,41.30
2022-08-12T04:22:02.098Z,41.36
2022-08-12T04:24:36.752Z,41.31
2022-08-12T04:27:11.022Z,41.24
2022-08-12T04:30:29.477Z,41.36
2022-08-12T04:32:27.509Z,41.55
2022-08-12T04:34:55.270Z,41.28
2022-08-12T04:37:23.258Z,41.87
2022-08-12T04:39:50.519Z,41.90
2022-08-12T04:42:17.149Z,42.02
2022-08-12T04:44:44.444Z,42.24
2022-08-12T04:47:12.835Z,42.00
2022-08-12T04:49:40.812Z,41.63
2022-08-12T04:52:07.506Z,41.47
2022-08-12T04:54:34.450Z,41.14
2022-08-12T04:57:04.139Z,41.42
2022-08-12T04:59:46.978Z,41.55
2022-08-12T05:02:20.379Z,39.03
2022-08-12T05:04:51.285Z,39.21
2022-08-12T05:07:17.947Z,39.18
2022-08-12T05:10:02.013Z,38.70
2022-08-12T05:12:37.301Z,38.26
2022-08-12T05:15:18.926Z,37.73
2022-08-12T05:17:53.235Z,37.37
2022-08-12T05:20:20.693Z,36.86
2022-08-12T05:22:47.274Z,36.73
2022-08-12T05:25:18.415Z,36.61
2022-08-12T05:27:57.996Z,36.26
2022-08-12T05:30:27.073Z,36.28
2022-08-12T05:32:55.731Z,35.84
2022-08-12T05:35:27.059Z,35.83
2022-08-12T05:38:11.999Z,35.74
2022-08-12T05:40:38.644Z,35.52
2022-08-12T05:43:06.548Z,35.53
2022-08-12T05:45:33.254Z,35.32
2022-08-12T05:48:00.068Z,35.28
2022-08-12T05:50:26.686Z,35.08
2022-08-12T05:52:53.938Z,34.94
2022-08-12T05:55:20.916Z,34.89
2022-08-12T05:57:55.757Z,34.74
2022-08-12T06:00:26.203Z,34.55
2022-08-12T06:03:01.291Z,34.18
2022-08-12T06:05:30.276Z,34.34
2022-08-12T06:08:01.657Z,34.42
2022-08-12T06:10:32.545Z,33.71
2022-08-12T06:13:06.860Z,34.36
2022-08-12T06:15:38.086Z,34.08
2022-08-12T06:18:13.954Z,33.76
2022-08-12T06:20:43.632Z,33.96
2022-08-12T06:23:11.881Z,33.36
2022-08-12T06:25:38.981Z,33.48
2022-08-12T06:28:15.594Z,33.47
2022-08-12T06:30:42.396Z,32.11
2022-08-12T06:33:22.435Z,33.39
2022-08-12T06:35:51.841Z,33.74
2022-08-12T06:38:25.210Z,32.71
2022-08-12T06:41:18.528Z,33.71
2022-08-12T06:44:05.696Z,33.17
2022-08-12T06:46:33.480Z,33.33
2022-08-12T06:49:00.133Z,31.52
2022-08-12T06:51:29.624Z,31.99
2022-08-12T06:53:57.469Z,33.48
2022-08-12T06:56:34.999Z,32.10
2022-08-12T06:59:13.884Z,32.67
2022-08-12T07:01:40.850Z,33.28
2022-08-12T07:04:35.899Z,33.33
2022-08-12T07:07:05.567Z,32.42
2022-08-12T07:10:01.226Z,32.20
2022-08-12T07:12:20.019Z,31.10
2022-08-12T07:14:51.789Z,31.55
2022-08-12T07:17:18.429Z,32.38
2022-08-12T07:19:46.871Z,32.51
2022-08-12T07:22:16.165Z,32.50
2022-08-12T07:24:43.020Z,31.65
2022-08-12T07:27:09.723Z,31.99
2022-08-12T07:29:57.994Z,31.86
2022-08-12T07:32:25.639Z,31.44
2022-08-12T07:34:56.417Z,31.74
2022-08-12T07:37:23.588Z,31.63
2022-08-12T07:39:59.502Z,31.84
2022-08-12T07:42:27.177Z,32.03
2022-08-12T07:44:53.927Z,31.58
2022-08-12T07:47:20.561Z,31.34
2022-08-12T07:50:04.775Z,31.45
2022-08-12T07:52:34.927Z,31.42
2022-08-12T07:55:02.135Z,31.26
2022-08-12T07:57:28.800Z,31.09
2022-08-12T07:59:55.870Z,31.38
2022-08-12T08:02:26.977Z,31.36
2022-08-12T08:04:56.953Z,31.54
2022-08-12T08:07:25.950Z,30.93
2022-08-12T08:09:58.428Z,30.75
2022-08-12T08:12:45.613Z,30.91
2022-08-12T08:15:12.447Z,31.09
2022-08-12T08:17:39.105Z,30.75
2022-08-12T08:20:08.719Z,30.58
2022-08-12T08:22:41.455Z,30.64
2022-08-12T08:25:34.618Z,30.70
2022-08-12T08:27:59.124Z,30.33
2022-08-12T08:30:26.736Z,30.29
2022-08-12T08:32:53.420Z,30.08
2022-08-12T08:35:22.485Z,29.68
2022-08-12T08:37:52.160Z,29.75
2022-08-12T08:40:38.116Z,29.56
2022-08-12T08:43:05.672Z,29.23
2022-08-12T08:45:32.235Z,29.38
2022-08-12T08:48:00.460Z,29.29
2022-08-12T08:50:27.522Z,29.33
2022-08-12T08:52:54.128Z,29.43
2022-08-12T08:55:27.401Z,29.02
2022-08-12T08:58:00.131Z,29.00
2022-08-12T09:00:27.030Z,28.58
2022-08-12T09:02:58.769Z,28.54
2022-08-12T09:05:27.281Z,28.51
2022-08-12T09:08:09.196Z,28.25
2022-08-12T09:10:45.273Z,27.75
2022-08-12T09:13:29.317Z,27.83
2022-08-12T09:16:20.322Z,27.68
2022-08-12T09:18:48.366Z,26.90
2022-08-12T09:21:19.399Z,26.64
2022-08-12T09:26:45.919Z,25.30
2022-08-12T09:29:15.384Z,25.17
2022-08-12T09:32:07.060Z,24.59
2022-08-12T09:34:33.840Z,24.74
2022-08-12T09:37:19.504Z,24.34
2022-08-12T09:40:03.556Z,24.04
2022-08-12T09:46:11.036Z,24.47
2022-08-12T09:48:34.856Z,24.38
2022-08-12T09:51:04.556Z,23.72
2022-08-12T09:53:38.372Z,23.79
2022-08-12T09:56:59.110Z,23.22
2022-08-12T09:58:58.613Z,23.13
2022-08-12T10:01:34.700Z,23.03
2022-08-12T10:04:05.736Z,23.23
2022-08-12T10:06:36.678Z,22.71
2022-08-12T10:09:15.326Z,22.75
2022-08-12T10:12:12.179Z,22.50
2022-08-12T10:14:50.300Z,22.82
2022-08-12T10:17:23.028Z,22.51
2022-08-12T10:19:52.576Z,22.83
2022-08-12T10:22:36.751Z,22.58
2022-08-12T10:26:35.086Z,22.47
2022-08-12T10:28:31.531Z,22.30
2022-08-12T10:30:59.160Z,22.32
2022-08-12T10:33:31.055Z,21.79
2022-08-12T10:35:59.823Z,21.42
2022-08-12T10:38:38.738Z,21.30
2022-08-12T10:41:58.029Z,21.35
2022-08-12T10:44:17.345Z,21.91
2022-08-12T10:46:49.378Z,20.92
2022-08-12T10:50:03.519Z,20.29
2022-08-12T10:52:34.335Z,20.34
2022-08-12T10:54:55.952Z,20.36
2022-08-12T10:58:15.041Z,20.42
2022-08-12T11:00:34.780Z,19.82
2022-08-12T11:04:34.281Z,20.11
2022-08-12T11:07:07.640Z,19.70
2022-08-12T11:08:42.327Z,19.92
2022-08-12T11:11:13.518Z,18.95
2022-08-12T11:13:46.712Z,19.16
2022-08-12T11:16:21.850Z,19.15
2022-08-12T11:18:55.437Z,19.41
2022-08-12T11:21:47.330Z,19.46
2022-08-12T11:24:30.190Z,19.25
2022-08-12T11:26:58.576Z,18.94
2022-08-12T11:29:27.767Z,18.60
2022-08-12T11:32:14.291Z,18.53
2022-08-12T11:34:52.842Z,18.16
2022-08-12T11:37:25.901Z,17.89
2022-08-12T11:42:35.679Z,17.93
2022-08-12T11:45:03.813Z,17.85
2022-08-12T11:47:31.807Z,17.90
2022-08-12T11:49:58.400Z,18.00
2022-08-12T11:52:55.290Z,18.23
2022-08-12T11:55:14.921Z,17.23
2022-08-12T11:58:14.307Z,16.99
2022-08-12T12:03:26.391Z,16.97
2022-08-12T12:06:15.436Z,16.86
2022-08-12T12:08:50.580Z,17.10
2022-08-12T12:11:19.786Z,16.59
2022-08-12T12:14:07.577Z,16.26
2022-08-12T12:16:38.269Z,15.64
2022-08-12T12:19:07.062Z,15.52
2022-08-12T12:21:48.585Z,15.89
2022-08-12T12:24:21.166Z,16.31
2022-08-12T12:27:00.545Z,16.67
2022-08-12T12:30:18.915Z,17.15
2022-08-12T12:32:16.348Z,17.52
2022-08-12T12:35:14.333Z,17.69
2022-08-12T12:38:03.843Z,17.73
2022-08-12T12:40:16.487Z,17.53
2022-08-12T12:42:55.240Z,17.30
2022-08-12T12:45:26.218Z,17.44
2022-08-12T12:47:58.989Z,16.65
2022-08-12T12:50:35.165Z,16.65
2022-08-12T12:53:03.892Z,17.32
2022-08-12T12:55:35.836Z,17.04
2022-08-12T12:58:04.894Z,17.13
2022-08-12T13:00:32.856Z,16.79
2022-08-12T13:03:00.200Z,16.74
2022-08-12T13:05:29.664Z,16.59
2022-08-12T13:08:38.307Z,16.55
2022-08-12T13:11:06.482Z,16.29
2022-08-12T13:14:09.204Z,16.53
2022-08-12T13:16:23.495Z,16.26
2022-08-12T13:18:52.783Z,15.89
2022-08-12T13:21:32.735Z,16.00
2022-08-12T13:24:09.637Z,15.77
2022-08-12T13:26:37.913Z,15.66
2022-08-12T13:29:04.605Z,15.36
2022-08-12T13:31:31.602Z,15.07
2022-08-12T13:34:34.259Z,15.70
2022-08-12T13:36:50.966Z,15.57
2022-08-12T13:39:21.357Z,15.03
2022-08-12T13:41:49.592Z,15.19
2022-08-12T13:44:16.540Z,15.21
2022-08-12T13:46:43.537Z,15.04
2022-08-12T13:49:55.186Z,14.61
2022-08-12T13:52:11.434Z,14.83
2022-08-12T13:54:37.980Z,15.15
2022-08-12T13:57:04.579Z,14.61
2022-08-12T13:59:48.120Z,14.30
2022-08-12T14:02:15.892Z,14.30
2022-08-12T14:04:45.505Z,13.88
2022-08-12T14:07:23.496Z,13.19
2022-08-12T14:10:11.748Z,13.21
2022-08-12T14:12:40.783Z,13.05
2022-08-12T14:15:21.511Z,12.47
2022-08-12T14:18:21.461Z,12.19
2022-08-12T14:20:50.294Z,11.35
2022-08-12T14:24:05.624Z,12.20
2022-08-12T14:26:12.106Z,12.17
2022-08-12T14:28:45.252Z,11.87
2022-08-12T14:31:31.802Z,11.60
2022-08-12T14:33:59.398Z,11.87
2022-08-12T14:36:26.801Z,11.39
2022-08-12T14:38:55.088Z,10.96
2022-08-12T14:41:37.128Z,10.97
2022-08-12T14:44:58.878Z,10.07
2022-08-12T14:46:59.221Z,9.98
2022-08-12T14:50:41.537Z,10.14
2022-08-12T14:53:03.385Z,10.17
2022-08-12T14:57:57.992Z,10.04
2022-08-12T15:00:52.568Z,9.80
2022-08-12T15:03:52.274Z,9.75
2022-08-12T15:06:43.780Z,10.14
2022-08-12T15:09:09.151Z,9.69
2022-08-12T15:11:55.725Z,9.82
2022-08-12T15:14:27.667Z,10.15
2022-08-12T15:16:57.317Z,9.92
2022-08-12T15:20:27.912Z,10.19
2022-08-12T15:22:36.935Z,10.12
2022-08-12T15:25:07.586Z,9.87
2022-08-12T15:28:04.156Z,9.72
2022-08-12T15:30:31.266Z,9.77
2022-08-12T15:32:58.963Z,9.68
2022-08-12T15:35:31.415Z,9.52
2022-08-12T15:38:19.705Z,9.59
2022-08-12T15:40:49.531Z,9.76
2022-08-12T15:43:35.286Z,10.11
2022-08-12T15:46:06.335Z,9.91
2022-08-12T15:48:33.135Z,9.95
2022-08-12T15:51:02.985Z,9.96
2022-08-12T15:53:53.451Z,9.77
2022-08-12T15:56:29.592Z,9.97
2022-08-12T15:59:00.197Z,10.35
2022-08-12T16:01:35.074Z,10.42
2022-08-12T16:04:02.664Z,10.29
2022-08-12T16:07:00.756Z,10.24
2022-08-12T16:09:21.600Z,10.10
2022-08-12T16:11:59.218Z,10.10
2022-08-12T16:14:28.287Z,9.91
2022-08-12T16:16:55.544Z,10.24
2022-08-12T16:20:03.122Z,10.09
2022-08-12T16:22:11.317Z,10.40
2022-08-12T16:24:43.563Z,10.68
2022-08-12T16:27:10.961Z,10.81
2022-08-12T16:29:53.183Z,10.46
2022-08-12T16:32:23.898Z,10.68
2022-08-12T16:34:55.752Z,10.17
2022-08-12T16:38:05.036Z,10.09
2022-08-12T16:40:10.968Z,10.63
2022-08-12T16:42:42.251Z,10.99
2022-08-12T16:45:23.096Z,10.92
2022-08-12T16:48:00.723Z,11.03
2022-08-12T16:50:31.270Z,10.73
2022-08-12T16:52:59.763Z,11.31
2022-08-12T16:55:41.918Z,10.93
2022-08-12T16:58:18.459Z,11.38
2022-08-12T17:00:55.357Z,11.52
2022-08-12T17:03:29.191Z,11.17
2022-08-12T17:05:57.263Z,11.63
2022-08-12T17:08:29.170Z,12.07
2022-08-12T17:10:56.336Z,12.47
2022-08-12T17:13:26.169Z,13.04
2022-08-12T17:16:05.642Z,14.04
2022-08-12T17:18:43.373Z,14.03
2022-08-12T17:21:19.711Z,15.00
2022-08-12T17:23:52.986Z,15.08
2022-08-12T17:26:24.745Z,15.51
2022-08-12T17:28:56.703Z,15.79
2022-08-12T17:32:00.331Z,15.98
2022-08-12T17:34:30.233Z,16.08
2022-08-12T17:37:04.863Z,16.49
2022-08-12T17:40:11.984Z,16.75
2022-08-12T17:42:34.424Z,17.05
2022-08-12T17:45:01.814Z,17.05
2022-08-12T17:47:43.857Z,17.44
2022-08-12T17:50:12.918Z,17.26
2022-08-12T17:52:40.304Z,17.13
2022-08-12T17:55:22.902Z,17.50
2022-08-12T17:57:57.242Z,17.53
2022-08-12T18:00:28.425Z,18.20
2022-08-12T18:02:59.806Z,17.99
2022-08-12T18:05:29.493Z,17.94
2022-08-12T18:08:15.970Z,18.31
2022-08-12T18:11:11.640Z,18.58
2022-08-12T18:13:42.561Z,18.48
2022-08-12T18:16:13.236Z,18.97
2022-08-12T18:18:41.867Z,19.04
2022-08-12T18:21:08.696Z,19.21
2022-08-12T18:23:50.553Z,19.08
2022-08-12T18:26:23.435Z,19.12
2022-08-12T18:28:54.681Z,19.33
2022-08-12T18:31:44.630Z,19.30
2022-08-12T18:34:18.471Z,19.49
2022-08-12T18:36:50.130Z,19.92
2022-08-12T18:39:19.680Z,19.99
2022-08-12T18:41:47.283Z,20.18
2022-08-12T18:44:14.088Z,20.35
2022-08-12T18:46:47.238Z,20.24
2022-08-12T18:49:25.077Z,20.32
2022-08-12T18:52:02.235Z,20.74
2022-08-12T18:54:36.056Z,20.86
2022-08-12T18:57:16.701Z,20.71
2022-08-12T19:00:00.868Z,21.23
2022-08-12T19:02:32.049Z,21.25
2022-08-12T19:04:59.099Z,21.33
2022-08-12T19:07:29.748Z,21.24
2022-08-12T19:10:13.908Z,21.48
2022-08-12T19:12:59.357Z,21.77
2022-08-12T19:15:27.273Z,22.00
2022-08-12T19:18:02.729Z,22.52
2022-08-12T19:20:30.630Z,22.27
2022-08-12T19:22:59.785Z,22.07
2022-08-12T19:26:01.710Z,22.59
2022-08-12T19:28:29.786Z,22.48
2022-08-12T19:31:56.832Z,22.83
2022-08-12T19:35:24.156Z,23.11
2022-08-12T19:37:38.600Z,23.66
2022-08-12T19:40:31.560Z,23.94
2022-08-12T19:43:02.357Z,23.88
2022-08-12T19:45:50.375Z,23.97
2022-08-12T19:48:20.427Z,24.32
2022-08-12T19:50:50.506Z,24.58
2022-08-12T19:53:22.777Z,24.65
2022-08-12T19:55:53.157Z,24.77
2022-08-12T19:58:21.525Z,24.96
2022-08-12T20:00:52.835Z,25.28
2022-08-12T20:03:39.831Z,25.58
2022-08-12T20:06:21.829Z,25.73
2022-08-12T20:08:56.582Z,25.94
2022-08-12T20:12:12.969Z,25.94
2022-08-12T20:14:19.197Z,26.57
2022-08-12T20:16:52.103Z,26.65
2022-08-12T20:19:21.344Z,27.10
2022-08-12T20:21:50.651Z,27.29
2022-08-12T20:24:19.392Z,27.79
2022-08-12T20:26:46.816Z,27.80
2022-08-12T20:29:15.084Z,28.08
2022-08-12T20:31:43.926Z,28.04
2022-08-12T20:34:12.330Z,28.11
2022-08-12T20:36:44.796Z,28.06
2022-08-12T20:39:34.340Z,28.18
2022-08-12T20:42:07.343Z,28.33
2022-08-12T20:44:40.417Z,28.26
2022-08-12T20:47:18.281Z,28.80
2022-08-12T20:49:54.860Z,28.78
2022-08-12T20:52:22.565Z,28.78
2022-08-12T20:54:51.923Z,28.98
2022-08-12T20:57:20.063Z,29.16
2022-08-12T20:59:49.553Z,29.45
2022-08-12T21:02:24.457Z,29.77
2022-08-12T21:05:16.603Z,29.96
2022-08-12T21:07:52.314Z,29.87
2022-08-12T21:10:21.028Z,29.99
2022-08-12T21:12:48.418Z,30.24
2022-08-12T21:15:30.314Z,30.37
2022-08-12T21:18:00.898Z,30.11
2022-08-12T21:20:37.853Z,30.49
2022-08-12T21:23:06.385Z,31.10
2022-08-12T21:25:35.979Z,30.94
2022-08-12T21:28:10.777Z,31.18
2022-08-12T21:31:10.836Z,31.45
2022-08-12T21:33:31.143Z,31.31
2022-08-12T21:35:59.114Z,31.37
2022-08-12T21:38:34.239Z,31.51
2022-08-12T21:41:06.839Z,31.65
2022-08-12T21:43:38.955Z,31.78
2022-08-12T21:46:14.997Z,32.01
2022-08-12T21:49:04.566Z,32.07
2022-08-12T21:51:35.371Z,32.54
2022-08-12T21:54:22.558Z,32.23
2022-08-12T21:56:53.607Z,32.19
2022-08-12T21:59:21.766Z,32.44
2022-08-12T22:01:49.786Z,32.49
2022-08-12T22:04:36.313Z,32.61
2022-08-12T22:07:03.680Z,32.75
2022-08-12T22:09:43.060Z,33.14
2022-08-12T22:12:29.593Z,32.99
2022-08-12T22:14:56.517Z,33.05
2022-08-12T22:17:33.744Z,33.10
2022-08-12T22:20:21.899Z,33.28
2022-08-12T22:22:56.434Z,33.40
2022-08-12T22:25:27.882Z,33.77
2022-08-12T22:28:13.438Z,33.86
2022-08-12T22:30:59.326Z,33.93
2022-08-12T22:33:25.936Z,33.58
2022-08-12T22:35:59.427Z,33.66
2022-08-12T22:38:29.696Z,33.84
2022-08-12T22:41:01.742Z,33.57
2022-08-12T22:44:00.710Z,33.36
2022-08-12T22:46:52.488Z,33.54
2022-08-12T22:49:20.364Z,33.85
2022-08-12T22:52:00.295Z,33.92
2022-08-12T22:54:36.668Z,33.89
2022-08-12T22:57:12.087Z,34.14
2022-08-12T22:59:55.866Z,34.25
2022-08-12T23:02:30.706Z,34.64
2022-08-12T23:04:57.947Z,34.75
2022-08-12T23:07:24.713Z,34.88
2022-08-12T23:09:51.415Z,34.92
2022-08-12T23:12:46.591Z,34.77
2022-08-12T23:15:14.195Z,34.97
2022-08-12T23:17:41.793Z,35.01
2022-08-12T23:20:11.435Z,35.22
2022-08-12T23:22:38.668Z,35.25
2022-08-12T23:25:07.780Z,35.09
2022-08-12T23:28:04.367Z,35.14
2022-08-12T23:30:32.117Z,35.38
2022-08-12T23:33:20.093Z,35.75
2022-08-12T23:36:02.496Z,35.47
2022-08-12T23:38:32.470Z,35.88
2022-08-12T23:41:05.952Z,36.29
2022-08-12T23:43:39.162Z,35.96
2022-08-12T23:46:08.731Z,35.79
2022-08-12T23:48:35.763Z,35.88
2022-08-12T23:51:22.399Z,36.30
2022-08-12T23:54:04.113Z,36.33
2022-08-12T23:56:32.998Z,36.12
2022-08-12T23:59:05.616Z,36.42
